Time;durP1;ratioP1;P1;durP2;ratioP2;P2;SDS_P1;SDS_P2;PMS_P1;PMS_P2;Temp;Humidity;BMP_temperature;BMP_pressure;BME280_temperature;BME280_humidity;BME280_pressure;Samples;Min_cycle;Max_cycle;Signal;HPM_P1;HPM_P2
2023/10/02 00:00:40;;;;;;;;;;;16.80;98.10;;;;;;5099782;28;19956;-71
2023/10/02 00:03:09;;;;;;;;;;;16.90;98.20;;;;;;5099053;28;19912;-71
2023/10/02 00:05:50;;;;;;;;;;;16.80;98.10;;;;;;5098837;28;19926;-71
2023/10/02 00:11:35;;;;;;;;;;;16.80;98.10;;;;;;5084858;28;19939;-71
2023/10/02 00:14:18;;;;;;;;;;;16.80;98.10;;;;;;5095976;28;19957;-71
2023/10/02 00:16:42;;;;;;;;;;;16.80;98.10;;;;;;5101399;28;20019;-71
2023/10/02 00:19:22;;;;;;;;;;;16.80;98.10;;;;;;5100785;28;19939;-71
2023/10/02 00:21:49;;;;;;;;;;;16.70;98.10;;;;;;5101193;28;19996;-71
2023/10/02 00:24:16;;;;;;;;;;;16.70;98.00;;;;;;5094259;28;19919;-71
2023/10/02 00:26:42;;;;;;;;;;;16.70;98.10;;;;;;5089904;28;20007;-71
2023/10/02 00:29:09;;;;;;;;;;;16.70;98.00;;;;;;5089993;28;19943;-71
2023/10/02 00:31:38;;;;;;;;;;;16.70;98.00;;;;;;5105279;28;19911;-71
2023/10/02 00:34:04;;;;;;;;;;;16.70;98.10;;;;;;5089796;28;19916;-71
2023/10/02 00:36:30;;;;;;;;;;;16.70;98.10;;;;;;5089747;28;19908;-71
2023/10/02 00:44:57;;;;;;;;;;;16.70;98.10;;;;;;5007415;28;19953;-71
2023/10/02 00:47:42;;;;;;;;;;;16.60;98.10;;;;;;5066596;28;19965;-71
2023/10/02 00:50:21;;;;;;;;;;;16.60;98.10;;;;;;5090184;28;19908;-71
2023/10/02 00:52:54;;;;;;;;;;;16.60;98.10;;;;;;5088436;28;19916;-71
2023/10/02 00:55:21;;;;;;;;;;;16.60;98.10;;;;;;5106447;28;19915;-71
2023/10/02 00:57:50;;;;;;;;;;;16.60;98.10;;;;;;5081435;28;19919;-71
2023/10/02 01:00:17;;;;;;;;;;;16.60;98.10;;;;;;5090153;28;19908;-71
2023/10/02 01:02:45;;;;;;;;;;;16.60;98.10;;;;;;5091136;28;19907;-71
2023/10/02 01:05:16;;;;;;;;;;;16.50;98.10;;;;;;5093054;28;19948;-71
2023/10/02 01:07:43;;;;;;;;;;;16.50;98.10;;;;;;5092317;28;19912;-71
2023/10/02 01:10:17;;;;;;;;;;;16.50;98.10;;;;;;5090681;28;19954;-71
2023/10/02 01:12:44;;;;;;;;;;;16.50;98.10;;;;;;5085475;28;19916;-71
2023/10/02 01:15:13;;;;;;;;;;;16.50;98.20;;;;;;5102171;28;19908;-71
2023/10/02 01:17:48;;;;;;;;;;;16.50;98.20;;;;;;5130347;27;19911;-71
2023/10/02 01:23:16;;;;;;;;;;;16.50;98.20;;;;;;5108948;28;20418;-71
2023/10/02 01:25:46;;;;;;;;;;;16.50;98.20;;;;;;5108642;28;19935;-71
2023/10/02 01:28:13;;;;;;;;;;;16.40;98.10;;;;;;5101860;28;20520;-71
2023/10/02 01:30:40;;;;;;;;;;;16.40;98.20;;;;;;5093035;28;19909;-71
2023/10/02 01:33:12;;;;;;;;;;;16.40;98.20;;;;;;5099627;28;19937;-71
2023/10/02 01:35:53;;;;;;;;;;;16.40;98.10;;;;;;5091849;28;19908;-71
2023/10/02 01:38:32;;;;;;;;;;;16.40;98.20;;;;;;5093613;28;19983;-71
2023/10/02 01:41:04;;;;;;;;;;;16.40;98.20;;;;;;5086358;28;19914;-71
2023/10/02 01:43:32;;;;;;;;;;;16.40;98.20;;;;;;5101284;28;19981;-71
2023/10/02 01:46:00;;;;;;;;;;;16.40;98.20;;;;;;5101424;28;19916;-71
2023/10/02 01:48:41;;;;;;;;;;;16.40;98.20;;;;;;5091795;28;19915;-71
2023/10/02 01:51:20;;;;;;;;;;;16.30;98.20;;;;;;5098766;28;19908;-71
2023/10/02 01:53:48;;;;;;;;;;;16.30;98.20;;;;;;5092354;28;20384;-71
2023/10/02 01:56:15;;;;;;;;;;;16.30;98.30;;;;;;5092981;28;19913;-71
2023/10/02 01:58:41;;;;;;;;;;;16.30;98.30;;;;;;5100666;28;19912;-71
2023/10/02 02:01:09;;;;;;;;;;;16.30;98.30;;;;;;5099373;28;19950;-71
2023/10/02 02:03:35;;;;;;;;;;;16.30;98.30;;;;;;5102465;28;19908;-71
2023/10/02 02:06:10;;;;;;;;;;;16.30;98.20;;;;;;5096981;28;19919;-71
2023/10/02 02:08:40;;;;;;;;;;;16.30;98.20;;;;;;5104482;28;19915;-71
2023/10/02 02:11:16;;;;;;;;;;;16.30;98.30;;;;;;5097979;28;19912;-71
2023/10/02 02:13:46;;;;;;;;;;;16.20;98.20;;;;;;5103299;28;19923;-71
2023/10/02 02:16:22;;;;;;;;;;;16.20;98.30;;;;;;5096206;28;19919;-71
2023/10/02 02:18:53;;;;;;;;;;;16.20;98.20;;;;;;5096154;28;20365;-71
2023/10/02 02:21:19;;;;;;;;;;;16.20;98.30;;;;;;5098424;28;19912;-71
2023/10/02 02:23:45;;;;;;;;;;;16.20;98.30;;;;;;5103609;27;19912;-71
2023/10/02 02:26:21;;;;;;;;;;;16.20;98.30;;;;;;5112571;28;20007;-71
2023/10/02 02:28:48;;;;;;;;;;;16.20;98.30;;;;;;5109145;28;20409;-71
2023/10/02 02:31:29;;;;;;;;;;;16.20;98.30;;;;;;5108200;28;19907;-71
2023/10/02 02:33:56;;;;;;;;;;;16.20;98.30;;;;;;5099676;27;19908;-71
2023/10/02 02:36:22;;;;;;;;;;;16.20;98.30;;;;;;5100360;28;20324;-71
2023/10/02 02:38:48;;;;;;;;;;;16.10;98.30;;;;;;5100484;28;19912;-71
2023/10/02 02:41:18;;;;;;;;;;;16.20;98.30;;;;;;5091876;28;19919;-71
2023/10/02 02:43:46;;;;;;;;;;;16.10;98.30;;;;;;5106407;28;19990;-71
2023/10/02 02:46:17;;;;;;;;;;;16.10;98.30;;;;;;5091741;28;19923;-71
2023/10/02 02:48:46;;;;;;;;;;;16.10;98.60;;;;;;5102835;28;19926;-71
2023/10/02 02:51:21;;;;;;;;;;;16.10;98.30;;;;;;5110594;28;19976;-71
2023/10/02 02:53:47;;;;;;;;;;;16.10;98.30;;;;;;5111620;28;19911;-71
2023/10/02 02:56:17;;;;;;;;;;;16.10;98.30;;;;;;5111968;28;19918;-71
2023/10/02 02:58:44;;;;;;;;;;;16.10;98.30;;;;;;5103237;28;19915;-71
2023/10/02 03:01:16;;;;;;;;;;;16.10;98.30;;;;;;5097288;28;19978;-71
2023/10/02 03:03:42;;;;;;;;;;;16.10;98.30;;;;;;5097586;28;19920;-71
2023/10/02 03:06:14;;;;;;;;;;;16.00;98.30;;;;;;5097706;28;20017;-71
2023/10/02 03:08:40;;;;;;;;;;;16.00;98.30;;;;;;5094795;27;19908;-71
2023/10/02 03:11:06;;;;;;;;;;;16.00;98.30;;;;;;5091191;27;19915;-71
2023/10/02 03:13:35;;;;;;;;;;;16.00;98.30;;;;;;5099464;28;19912;-71
2023/10/02 03:16:10;;;;;;;;;;;16.00;98.30;;;;;;5091201;28;19912;-71
2023/10/02 03:18:43;;;;;;;;;;;16.00;98.30;;;;;;5100997;28;20385;-71
2023/10/02 03:21:14;;;;;;;;;;;16.00;98.30;;;;;;5105981;28;19911;-71
2023/10/02 03:23:43;;;;;;;;;;;16.00;98.30;;;;;;5108553;28;19908;-71
2023/10/02 03:26:27;;;;;;;;;;;16.00;98.30;;;;;;5104268;28;20364;-71
2023/10/02 03:29:02;;;;;;;;;;;16.00;98.30;;;;;;5087680;28;19912;-71
2023/10/02 03:31:51;;;;;;;;;;;16.00;98.40;;;;;;5110819;28;19911;-71
2023/10/02 03:34:29;;;;;;;;;;;16.00;98.40;;;;;;5093872;28;19951;-71
2023/10/02 03:36:59;;;;;;;;;;;16.00;98.40;;;;;;5103648;28;19954;-71
2023/10/02 03:42:13;;;;;;;;;;;15.90;98.30;;;;;;5095725;28;19915;-71
2023/10/02 03:44:42;;;;;;;;;;;15.90;98.40;;;;;;5100782;28;19909;-71
2023/10/02 03:47:12;;;;;;;;;;;15.90;98.40;;;;;;5102558;28;19915;-71
2023/10/02 03:49:42;;;;;;;;;;;15.90;98.40;;;;;;5097673;28;19918;-71
2023/10/02 03:52:08;;;;;;;;;;;15.90;98.40;;;;;;5084975;28;20273;-71
2023/10/02 03:54:34;;;;;;;;;;;15.90;98.40;;;;;;5108335;28;19912;-71
2023/10/02 03:57:01;;;;;;;;;;;15.90;98.40;;;;;;5111069;28;19907;-71
2023/10/02 03:59:31;;;;;;;;;;;15.90;98.40;;;;;;5102267;28;19918;-71
2023/10/02 04:02:24;;;;;;;;;;;15.90;98.40;;;;;;5102444;27;20280;-71
2023/10/02 04:04:43;;;;;;;;;;;15.90;98.40;;;;;;5099009;28;22366;-71
2023/10/02 04:07:11;;;;;;;;;;;15.80;98.30;;;;;;5098728;28;19908;-71
2023/10/02 04:09:37;;;;;;;;;;;15.80;98.40;;;;;;5106882;28;19908;-71
2023/10/02 04:12:04;;;;;;;;;;;15.80;98.40;;;;;;5090105;28;19912;-71
2023/10/02 04:14:33;;;;;;;;;;;15.80;98.30;;;;;;5097719;28;20601;-71
2023/10/02 04:19:48;;;;;;;;;;;15.80;98.40;;;;;;5110025;28;19942;-71
2023/10/02 04:22:19;;;;;;;;;;;15.80;98.40;;;;;;5110476;28;19912;-71
2023/10/02 04:24:53;;;;;;;;;;;15.80;98.30;;;;;;5098662;28;20451;-71
2023/10/02 04:27:27;;;;;;;;;;;15.80;98.30;;;;;;5090132;28;19917;-71
2023/10/02 04:30:20;;;;;;;;;;;15.80;98.30;;;;;;5082031;28;19912;-71
2023/10/02 04:32:49;;;;;;;;;;;15.80;98.40;;;;;;5098252;28;19985;-71
2023/10/02 04:38:00;;;;;;;;;;;15.80;98.30;;;;;;5088130;28;20007;-71
2023/10/02 04:43:25;;;;;;;;;;;15.80;98.30;;;;;;5101380;28;19993;-71
2023/10/02 04:45:50;;;;;;;;;;;15.80;98.30;;;;;;5093291;28;19922;-71
2023/10/02 04:48:17;;;;;;;;;;;15.80;98.30;;;;;;5094935;28;19912;-71
2023/10/02 04:50:45;;;;;;;;;;;15.70;98.20;;;;;;5089019;28;19912;-71
2023/10/02 04:55:43;;;;;;;;;;;15.70;98.30;;;;;;5100975;28;20451;-71
2023/10/02 04:58:09;;;;;;;;;;;15.70;98.30;;;;;;5103685;28;19912;-71
2023/10/02 05:03:30;;;;;;;;;;;15.80;98.30;;;;;;5095920;28;20041;-71
2023/10/02 05:05:58;;;;;;;;;;;15.70;98.30;;;;;;5098322;28;19955;-71
2023/10/02 05:08:35;;;;;;;;;;;15.70;98.30;;;;;;5101696;28;20368;-71
2023/10/02 05:11:07;;;;;;;;;;;15.70;98.30;;;;;;5084221;28;19915;-71
2023/10/02 05:16:32;;;;;;;;;;;15.70;98.20;;;;;;5102038;28;20406;-71
2023/10/02 05:18:58;;;;;;;;;;;15.70;98.30;;;;;;5086166;28;19961;-71
2023/10/02 05:21:38;;;;;;;;;;;15.70;98.20;;;;;;5097669;28;20003;-71
2023/10/02 05:24:13;;;;;;;;;;;15.70;98.30;;;;;;5103323;28;20267;-71
2023/10/02 05:26:41;;;;;;;;;;;15.70;98.30;;;;;;5098666;28;19920;-71
2023/10/02 05:29:09;;;;;;;;;;;15.70;98.30;;;;;;5096530;28;20003;-71
2023/10/02 05:31:35;;;;;;;;;;;15.70;98.30;;;;;;5097348;28;20483;-71
2023/10/02 05:34:08;;;;;;;;;;;15.70;98.30;;;;;;5098561;28;19990;-71
2023/10/02 05:36:35;;;;;;;;;;;15.60;98.30;;;;;;5090152;28;19916;-71
2023/10/02 05:39:28;;;;;;;;;;;15.70;98.30;;;;;;5089323;28;20295;-71
2023/10/02 05:41:56;;;;;;;;;;;15.70;98.30;;;;;;5083774;28;19916;-71
2023/10/02 05:44:25;;;;;;;;;;;15.70;98.30;;;;;;5088797;28;19915;-71
2023/10/02 05:47:04;;;;;;;;;;;15.70;98.40;;;;;;5086179;28;19920;-71
2023/10/02 05:49:30;;;;;;;;;;;15.60;98.30;;;;;;5099633;28;20036;-71
2023/10/02 05:51:56;;;;;;;;;;;15.60;98.30;;;;;;5089625;28;19955;-71
2023/10/02 05:54:35;;;;;;;;;;;15.60;98.30;;;;;;5092527;28;20352;-71
2023/10/02 05:57:12;;;;;;;;;;;15.70;98.30;;;;;;5091522;28;20017;-71
2023/10/02 05:59:45;;;;;;;;;;;15.70;98.30;;;;;;5101380;28;19915;-71
2023/10/02 06:02:14;;;;;;;;;;;15.60;98.30;;;;;;5092825;28;19919;-71
2023/10/02 06:04:49;;;;;;;;;;;15.60;98.30;;;;;;5092268;28;19908;-71
2023/10/02 06:07:19;;;;;;;;;;;15.60;98.30;;;;;;5092627;28;19915;-71
2023/10/02 06:09:47;;;;;;;;;;;15.60;98.30;;;;;;5101171;28;19908;-71
2023/10/02 06:12:13;;;;;;;;;;;15.60;98.30;;;;;;5107912;28;19914;-71
2023/10/02 06:14:39;;;;;;;;;;;15.60;98.30;;;;;;5095803;28;19916;-71
2023/10/02 06:17:11;;;;;;;;;;;15.60;98.30;;;;;;5112946;28;19908;-71
2023/10/02 06:19:42;;;;;;;;;;;15.60;98.30;;;;;;5102402;28;19908;-71
2023/10/02 06:22:13;;;;;;;;;;;15.60;98.30;;;;;;5080037;28;19998;-71
2023/10/02 06:24:39;;;;;;;;;;;15.70;98.30;;;;;;5099637;28;19912;-71
2023/10/02 06:27:05;;;;;;;;;;;15.60;98.20;;;;;;5110532;28;19942;-71
2023/10/02 06:29:35;;;;;;;;;;;15.70;98.30;;;;;;5111608;28;19964;-71
2023/10/02 06:32:11;;;;;;;;;;;15.60;98.20;;;;;;5107437;28;20003;-71
2023/10/02 06:34:43;;;;;;;;;;;15.60;98.20;;;;;;5100885;28;19965;-71
2023/10/02 06:37:12;;;;;;;;;;;15.70;98.20;;;;;;5111883;28;19953;-71
2023/10/02 06:39:42;;;;;;;;;;;15.70;98.30;;;;;;5103813;28;19968;-71
2023/10/02 06:42:08;;;;;;;;;;;15.60;98.20;;;;;;5096886;28;19908;-71
2023/10/02 06:44:53;;;;;;;;;;;15.60;98.20;;;;;;5101478;28;19911;-71
2023/10/02 06:47:24;;;;;;;;;;;15.60;98.20;;;;;;5105645;28;19980;-71
2023/10/02 06:49:51;;;;;;;;;;;15.70;98.20;;;;;;5109595;28;19911;-71
2023/10/02 06:52:17;;;;;;;;;;;15.70;98.10;;;;;;5096793;28;20404;-71
2023/10/02 06:54:44;;;;;;;;;;;15.70;98.10;;;;;;5090141;28;19916;-71
2023/10/02 06:57:11;;;;;;;;;;;15.70;98.20;;;;;;5083345;28;20307;-71
2023/10/02 06:59:41;;;;;;;;;;;15.70;98.10;;;;;;5088266;28;20481;-71
2023/10/02 07:02:09;;;;;;;;;;;15.70;98.00;;;;;;5093252;28;19920;-71
2023/10/02 07:04:36;;;;;;;;;;;15.80;98.00;;;;;;5073056;28;20357;-71
2023/10/02 07:07:07;;;;;;;;;;;15.70;97.90;;;;;;5096894;28;19962;-71
2023/10/02 07:09:36;;;;;;;;;;;15.70;97.90;;;;;;5088854;28;19950;-71
2023/10/02 07:12:08;;;;;;;;;;;15.80;97.90;;;;;;5084363;28;19912;-71
2023/10/02 07:14:36;;;;;;;;;;;15.80;97.90;;;;;;5088841;28;19951;-71
2023/10/02 07:17:11;;;;;;;;;;;15.80;97.90;;;;;;5088323;28;19919;-71
2023/10/02 07:19:46;;;;;;;;;;;15.80;97.90;;;;;;5097017;28;19954;-71
2023/10/02 07:22:16;;;;;;;;;;;15.80;97.80;;;;;;5083661;28;19915;-71
2023/10/02 07:25:04;;;;;;;;;;;15.80;97.80;;;;;;5091486;28;20273;-71
2023/10/02 07:27:31;;;;;;;;;;;15.90;97.80;;;;;;5088419;28;19916;-71
2023/10/02 07:29:57;;;;;;;;;;;15.90;97.80;;;;;;5090302;28;19908;-71
2023/10/02 07:32:25;;;;;;;;;;;15.90;97.70;;;;;;5090369;28;19919;-71
2023/10/02 07:34:51;;;;;;;;;;;15.90;97.70;;;;;;5081096;28;20549;-71
2023/10/02 07:37:21;;;;;;;;;;;15.90;97.70;;;;;;5088706;28;19943;-71
2023/10/02 07:40:00;;;;;;;;;;;15.90;97.70;;;;;;5081480;28;19912;-71
2023/10/02 07:42:28;;;;;;;;;;;16.00;97.60;;;;;;5098121;28;20024;-71
2023/10/02 07:44:56;;;;;;;;;;;16.00;97.60;;;;;;5088245;28;19923;-71
2023/10/02 07:47:22;;;;;;;;;;;16.00;97.60;;;;;;5091425;28;20311;-71
2023/10/02 07:49:51;;;;;;;;;;;16.00;97.50;;;;;;5098590;28;19916;-71
2023/10/02 07:52:43;;;;;;;;;;;16.00;97.60;;;;;;5083021;28;20007;-71
2023/10/02 07:55:10;;;;;;;;;;;16.10;97.50;;;;;;5082740;28;19916;-71
2023/10/02 07:57:35;;;;;;;;;;;16.10;97.50;;;;;;5080593;28;19916;-71
2023/10/02 08:00:33;;;;;;;;;;;16.10;97.50;;;;;;5089522;28;20423;-71
2023/10/02 08:02:52;;;;;;;;;;;16.10;97.40;;;;;;5088796;28;19925;-71
2023/10/02 08:05:20;;;;;;;;;;;16.20;97.60;;;;;;5089254;28;20374;-71
2023/10/02 08:07:46;;;;;;;;;;;16.20;97.40;;;;;;5086841;28;19918;-71
2023/10/02 08:10:11;;;;;;;;;;;16.30;97.30;;;;;;5083724;28;19995;-71
2023/10/02 08:12:39;;;;;;;;;;;16.30;97.40;;;;;;5088876;28;19924;-71
2023/10/02 08:15:26;;;;;;;;;;;16.30;97.30;;;;;;5083964;28;19952;-71
2023/10/02 08:20:20;;;;;;;;;;;16.40;97.40;;;;;;5089477;28;20354;-71
2023/10/02 08:22:45;;;;;;;;;;;16.40;97.30;;;;;;5078515;28;19912;-71
2023/10/02 08:25:14;;;;;;;;;;;16.50;97.30;;;;;;5083515;28;19923;-71
2023/10/02 08:27:43;;;;;;;;;;;16.50;97.20;;;;;;5097350;28;19958;-71
2023/10/02 08:33:11;;;;;;;;;;;16.60;97.20;;;;;;5081112;28;19912;-71
2023/10/02 08:35:37;;;;;;;;;;;16.60;97.10;;;;;;5080386;28;19973;-71
2023/10/02 08:38:21;;;;;;;;;;;16.70;97.20;;;;;;5083146;28;19912;-71
2023/10/02 08:40:59;;;;;;;;;;;16.70;97.10;;;;;;5090103;28;19966;-71
2023/10/02 08:43:28;;;;;;;;;;;16.70;97.10;;;;;;5086368;28;20446;-71
2023/10/02 08:45:54;;;;;;;;;;;16.80;97.00;;;;;;5088425;28;19916;-71
2023/10/02 08:48:25;;;;;;;;;;;16.80;97.00;;;;;;5091476;28;19934;-71
2023/10/02 08:50:57;;;;;;;;;;;16.80;96.90;;;;;;5077060;28;20006;-71
2023/10/02 08:53:23;;;;;;;;;;;16.90;96.90;;;;;;5092328;28;19945;-71
2023/10/02 08:56:00;;;;;;;;;;;16.90;96.80;;;;;;5080510;28;20645;-71
2023/10/02 08:58:27;;;;;;;;;;;17.00;96.90;;;;;;5088651;28;19964;-71
2023/10/02 09:03:42;;;;;;;;;;;17.00;96.70;;;;;;5080021;28;20416;-71
2023/10/02 09:06:30;;;;;;;;;;;17.10;96.80;;;;;;5080283;28;19916;-71
2023/10/02 09:11:44;;;;;;;;;;;17.10;96.70;;;;;;5092074;28;20015;-71
2023/10/02 09:14:20;;;;;;;;;;;17.20;96.50;;;;;;5088434;28;20399;-71
2023/10/02 09:16:46;;;;;;;;;;;17.30;96.60;;;;;;5088283;28;20309;-71
2023/10/02 09:19:30;;;;;;;;;;;17.30;96.60;;;;;;5099381;28;20291;-71
2023/10/02 09:22:06;;;;;;;;;;;17.30;96.60;;;;;;5080135;28;19965;-71
2023/10/02 09:24:34;;;;;;;;;;;17.30;96.50;;;;;;5079657;28;19962;-71
2023/10/02 09:27:20;;;;;;;;;;;17.40;96.50;;;;;;5099450;28;19924;-71
2023/10/02 09:29:46;;;;;;;;;;;17.40;96.50;;;;;;5093476;28;20654;-71
2023/10/02 09:32:21;;;;;;;;;;;17.40;96.40;;;;;;5092402;28;19912;-71
2023/10/02 09:35:11;;;;;;;;;;;17.50;96.40;;;;;;5090645;28;19935;-71
2023/10/02 09:37:45;;;;;;;;;;;17.50;96.30;;;;;;5091951;28;19908;-71
2023/10/02 09:40:17;;;;;;;;;;;17.60;96.50;;;;;;5092159;28;19912;-71
2023/10/02 09:42:45;;;;;;;;;;;17.60;96.50;;;;;;5083095;28;19961;-71
2023/10/02 09:45:15;;;;;;;;;;;17.60;96.30;;;;;;5100322;28;20234;-71
2023/10/02 09:47:43;;;;;;;;;;;17.70;96.60;;;;;;5084876;28;19912;-71
2023/10/02 09:50:26;;;;;;;;;;;17.70;96.40;;;;;;5104164;28;19957;-71
2023/10/02 09:52:58;;;;;;;;;;;17.80;96.50;;;;;;5089099;28;19978;-71
2023/10/02 09:55:33;;;;;;;;;;;17.80;96.50;;;;;;5104142;27;19915;-71
2023/10/02 09:58:03;;;;;;;;;;;17.90;96.30;;;;;;5084031;28;19915;-71
2023/10/02 10:00:36;;;;;;;;;;;17.90;96.40;;;;;;5091827;28;19916;-71
2023/10/02 10:03:23;;;;;;;;;;;18.00;96.60;;;;;;5097295;28;20003;-71
2023/10/02 10:06:15;;;;;;;;;;;18.00;96.40;;;;;;5101524;28;19911;-71
2023/10/02 10:11:42;;;;;;;;;;;18.10;96.20;;;;;;5084548;28;19965;-71
2023/10/02 10:14:35;;;;;;;;;;;18.20;96.10;;;;;;5086377;28;19916;-71
2023/10/02 10:17:14;;;;;;;;;;;18.20;96.20;;;;;;5111498;27;19916;-71
2023/10/02 10:20:18;;;;;;;;;;;18.30;96.30;;;;;;5113171;27;19939;-71
2023/10/02 10:22:56;;;;;;;;;;;18.30;96.20;;;;;;5096064;28;19911;-71
2023/10/02 10:28:08;;;;;;;;;;;18.40;96.20;;;;;;5090903;28;19920;-71
2023/10/02 10:30:43;;;;;;;;;;;18.40;95.90;;;;;;5082191;28;19955;-71
2023/10/02 10:35:38;;;;;;;;;;;18.60;96.00;;;;;;5090818;28;19918;-71
2023/10/02 10:41:05;;;;;;;;;;;18.70;95.90;;;;;;5091761;28;20627;-71
2023/10/02 10:43:44;;;;;;;;;;;18.80;95.80;;;;;;5082111;28;19992;-71
2023/10/02 10:46:31;;;;;;;;;;;18.90;95.90;;;;;;5090871;28;20024;-71
2023/10/02 10:49:07;;;;;;;;;;;19.00;95.90;;;;;;5088182;28;19912;-71
2023/10/02 10:51:36;;;;;;;;;;;19.00;95.80;;;;;;5090511;28;19912;-71
2023/10/02 10:54:12;;;;;;;;;;;19.00;95.80;;;;;;5089335;28;19919;-71
2023/10/02 10:56:43;;;;;;;;;;;19.10;95.90;;;;;;5091020;28;19912;-71
2023/10/02 10:59:12;;;;;;;;;;;19.10;95.80;;;;;;5097027;28;20038;-71
2023/10/02 11:01:49;;;;;;;;;;;19.20;95.80;;;;;;5089061;28;19916;-71
2023/10/02 11:04:26;;;;;;;;;;;19.30;95.60;;;;;;5088477;28;19946;-70
2023/10/02 11:06:52;;;;;;;;;;;19.30;95.60;;;;;;5088768;28;19920;-70
2023/10/02 11:09:18;;;;;;;;;;;19.40;95.80;;;;;;5090221;28;20348;-70
2023/10/02 11:11:49;;;;;;;;;;;19.50;95.90;;;;;;5087861;28;19959;-70
2023/10/02 11:14:20;;;;;;;;;;;19.60;96.00;;;;;;5088635;28;19908;-70
2023/10/02 11:16:50;;;;;;;;;;;19.70;95.80;;;;;;5109172;28;19911;-70
2023/10/02 11:22:14;;;;;;;;;;;19.90;95.40;;;;;;5089841;28;19908;-70
2023/10/02 11:25:00;;;;;;;;;;;20.10;95.50;;;;;;5097658;28;19908;-70
2023/10/02 11:27:29;;;;;;;;;;;20.20;95.40;;;;;;5093597;28;20023;-70
2023/10/02 11:30:01;;;;;;;;;;;20.30;95.20;;;;;;5090391;28;20280;-70
2023/10/02 11:32:58;;;;;;;;;;;20.40;95.00;;;;;;5090354;28;20006;-70
2023/10/02 11:35:37;;;;;;;;;;;20.50;95.10;;;;;;5096222;28;19958;-70
2023/10/02 11:38:03;;;;;;;;;;;20.60;95.20;;;;;;5098078;28;20001;-70
2023/10/02 11:40:29;;;;;;;;;;;20.70;95.10;;;;;;5105429;28;19961;-70
2023/10/02 11:42:59;;;;;;;;;;;20.70;95.00;;;;;;5098520;28;19912;-70
2023/10/02 11:45:28;;;;;;;;;;;20.80;95.00;;;;;;5085719;28;19912;-70
2023/10/02 11:47:53;;;;;;;;;;;20.80;95.00;;;;;;5106889;28;20378;-70
2023/10/02 11:50:19;;;;;;;;;;;20.90;94.80;;;;;;5088982;28;20018;-70
2023/10/02 11:52:45;;;;;;;;;;;20.90;95.00;;;;;;5089995;28;19914;-70
2023/10/02 11:55:10;;;;;;;;;;;20.90;94.90;;;;;;5103812;28;19919;-70
2023/10/02 11:57:37;;;;;;;;;;;21.00;95.00;;;;;;5092951;28;19929;-70
2023/10/02 12:00:08;;;;;;;;;;;21.00;94.90;;;;;;5090430;28;19912;-70
2023/10/02 12:02:34;;;;;;;;;;;21.00;95.10;;;;;;5089557;28;19912;-70
2023/10/02 12:05:00;;;;;;;;;;;21.10;94.90;;;;;;5088210;28;19934;-70
2023/10/02 12:07:25;;;;;;;;;;;21.10;94.90;;;;;;5090258;28;19919;-70
2023/10/02 12:09:52;;;;;;;;;;;21.20;94.70;;;;;;5087879;28;19916;-70
2023/10/02 12:12:17;;;;;;;;;;;21.30;94.70;;;;;;5084391;28;20003;-70
2023/10/02 12:14:43;;;;;;;;;;;21.40;94.80;;;;;;5089501;28;20007;-70
2023/10/02 12:17:11;;;;;;;;;;;21.40;94.90;;;;;;5089788;28;20349;-70
2023/10/02 12:19:39;;;;;;;;;;;21.50;94.70;;;;;;5087346;28;19999;-70
2023/10/02 12:22:08;;;;;;;;;;;21.60;94.70;;;;;;5089659;28;20368;-70
2023/10/02 12:24:35;;;;;;;;;;;21.60;94.80;;;;;;5084967;28;19946;-70
2023/10/02 12:27:01;;;;;;;;;;;21.70;94.60;;;;;;5080368;28;20595;-70
2023/10/02 12:29:27;;;;;;;;;;;21.70;94.70;;;;;;5080682;28;19916;-70
2023/10/02 12:31:53;;;;;;;;;;;21.80;94.60;;;;;;5087520;28;19922;-71
2023/10/02 12:34:19;;;;;;;;;;;21.80;94.60;;;;;;5088036;28;19918;-71
2023/10/02 12:36:45;;;;;;;;;;;21.90;94.60;;;;;;5088597;28;19953;-71
2023/10/02 12:39:13;;;;;;;;;;;21.90;94.60;;;;;;5094614;28;19912;-71
2023/10/02 12:41:41;;;;;;;;;;;21.90;94.80;;;;;;5088518;28;19916;-71
2023/10/02 12:44:07;;;;;;;;;;;21.90;94.40;;;;;;5082971;28;20242;-71
2023/10/02 12:46:33;;;;;;;;;;;22.00;94.60;;;;;;5085190;28;20598;-70
2023/10/02 12:49:00;;;;;;;;;;;22.00;94.50;;;;;;5088305;28;19918;-70
2023/10/02 12:51:26;;;;;;;;;;;22.00;94.60;;;;;;5088665;28;20012;-70
2023/10/02 12:53:52;;;;;;;;;;;22.00;94.50;;;;;;5087911;28;20008;-70
2023/10/02 12:56:19;;;;;;;;;;;22.10;94.70;;;;;;5082925;28;20314;-70
2023/10/02 12:58:48;;;;;;;;;;;22.10;94.40;;;;;;5078107;28;19908;-70
2023/10/02 13:01:17;;;;;;;;;;;22.10;94.40;;;;;;5088753;28;19912;-70
2023/10/02 13:03:43;;;;;;;;;;;22.20;94.30;;;;;;5086900;28;20542;-70
2023/10/02 13:06:12;;;;;;;;;;;22.20;94.30;;;;;;5088341;28;19923;-70
2023/10/02 13:08:38;;;;;;;;;;;22.30;94.30;;;;;;5088440;28;19912;-71
2023/10/02 13:11:04;;;;;;;;;;;22.30;94.30;;;;;;5081581;28;19920;-71
2023/10/02 13:13:30;;;;;;;;;;;22.40;94.40;;;;;;5103716;28;19908;-71
2023/10/02 13:15:56;;;;;;;;;;;22.40;94.30;;;;;;5087212;28;20349;-71
2023/10/02 13:18:21;;;;;;;;;;;22.40;94.40;;;;;;5104249;28;19915;-71
2023/10/02 13:20:47;;;;;;;;;;;22.40;94.20;;;;;;5091033;28;19959;-71
2023/10/02 13:23:13;;;;;;;;;;;22.50;94.30;;;;;;5103733;28;19932;-71
2023/10/02 13:25:39;;;;;;;;;;;22.50;94.40;;;;;;5088321;28;19927;-71
2023/10/02 13:28:04;;;;;;;;;;;22.50;94.20;;;;;;5088874;28;19920;-71
2023/10/02 13:30:30;;;;;;;;;;;22.50;94.20;;;;;;5089031;28;19908;-71
2023/10/02 13:32:56;;;;;;;;;;;22.50;94.30;;;;;;5088721;28;20066;-71
2023/10/02 13:35:23;;;;;;;;;;;22.60;94.30;;;;;;5089112;28;19908;-71
2023/10/02 13:37:50;;;;;;;;;;;22.60;94.20;;;;;;5089081;28;19912;-71
2023/10/02 13:40:25;;;;;;;;;;;22.60;94.20;;;;;;5087689;28;19912;-71
2023/10/02 13:42:51;;;;;;;;;;;22.60;94.30;;;;;;5089166;28;19953;-71
2023/10/02 13:45:21;;;;;;;;;;;22.60;94.30;;;;;;5089213;28;19916;-71
2023/10/02 13:47:47;;;;;;;;;;;22.60;94.30;;;;;;5091971;28;19912;-71
2023/10/02 13:50:13;;;;;;;;;;;22.60;94.30;;;;;;5102031;28;19964;-71
2023/10/02 13:52:39;;;;;;;;;;;22.60;94.30;;;;;;5100656;28;20000;-71
2023/10/02 13:55:19;;;;;;;;;;;22.60;94.30;;;;;;5088880;28;19908;-71
2023/10/02 13:57:51;;;;;;;;;;;22.60;94.30;;;;;;5098645;28;19908;-71
2023/10/02 14:00:17;;;;;;;;;;;22.60;94.30;;;;;;5103620;28;20522;-71
2023/10/02 14:02:52;;;;;;;;;;;22.60;94.30;;;;;;5088886;28;19918;-71
2023/10/02 14:05:18;;;;;;;;;;;22.60;94.30;;;;;;5089016;28;20444;-71
2023/10/02 14:07:45;;;;;;;;;;;22.70;94.30;;;;;;5087393;28;19912;-71
2023/10/02 14:10:14;;;;;;;;;;;22.70;94.30;;;;;;5086426;28;19913;-71
2023/10/02 14:12:43;;;;;;;;;;;22.70;94.30;;;;;;5103533;28;20368;-71
2023/10/02 14:15:10;;;;;;;;;;;22.70;94.40;;;;;;5099358;28;20284;-71
2023/10/02 14:17:36;;;;;;;;;;;22.70;94.40;;;;;;5104308;28;20003;-71
2023/10/02 14:20:04;;;;;;;;;;;22.70;94.50;;;;;;5100902;28;20415;-71
2023/10/02 14:22:33;;;;;;;;;;;22.70;94.40;;;;;;5097333;28;19914;-71
2023/10/02 14:25:00;;;;;;;;;;;22.70;94.40;;;;;;5092604;27;19912;-71
2023/10/02 14:27:26;;;;;;;;;;;22.70;94.40;;;;;;5092587;28;19919;-71
2023/10/02 14:29:52;;;;;;;;;;;22.70;94.50;;;;;;5100614;28;20275;-71
2023/10/02 14:32:19;;;;;;;;;;;22.70;94.50;;;;;;5098233;28;19912;-71
2023/10/02 14:34:44;;;;;;;;;;;22.70;94.40;;;;;;5103981;28;19919;-71
2023/10/02 14:37:10;;;;;;;;;;;22.70;94.50;;;;;;5104413;28;19908;-71
2023/10/02 14:39:35;;;;;;;;;;;22.70;94.50;;;;;;5102487;28;19915;-71
2023/10/02 14:42:04;;;;;;;;;;;22.80;94.50;;;;;;5094648;28;19912;-71
2023/10/02 14:44:30;;;;;;;;;;;22.80;94.50;;;;;;5091890;28;20392;-71
2023/10/02 14:46:55;;;;;;;;;;;22.80;94.50;;;;;;5098623;28;19920;-71
2023/10/02 14:49:21;;;;;;;;;;;22.80;94.40;;;;;;5102213;28;19912;-71
2023/10/02 14:51:47;;;;;;;;;;;22.80;94.50;;;;;;5092867;28;19965;-71
2023/10/02 14:54:13;;;;;;;;;;;22.80;94.50;;;;;;5097433;28;19908;-71
2023/10/02 14:56:39;;;;;;;;;;;22.80;94.50;;;;;;5093709;28;19943;-71
2023/10/02 14:59:06;;;;;;;;;;;22.80;94.50;;;;;;5100202;28;19955;-71
2023/10/02 15:01:31;;;;;;;;;;;22.80;94.50;;;;;;5091958;28;19912;-71
2023/10/02 15:03:57;;;;;;;;;;;22.80;94.50;;;;;;5103238;28;19908;-71
2023/10/02 15:06:24;;;;;;;;;;;22.80;94.50;;;;;;5106084;28;19919;-71
2023/10/02 15:09:00;;;;;;;;;;;22.80;94.60;;;;;;5090240;28;20326;-71
2023/10/02 15:11:26;;;;;;;;;;;22.80;94.60;;;;;;5092958;28;20006;-71
2023/10/02 15:13:52;;;;;;;;;;;22.80;94.60;;;;;;5092678;28;20014;-71
2023/10/02 15:16:18;;;;;;;;;;;22.80;94.70;;;;;;5090540;28;20424;-72
2023/10/02 15:18:47;;;;;;;;;;;22.70;94.60;;;;;;5109488;28;20007;-71
2023/10/02 15:21:12;;;;;;;;;;;22.70;94.70;;;;;;5098676;28;19965;-71
2023/10/02 15:23:39;;;;;;;;;;;22.70;94.70;;;;;;5091917;28;19908;-71
2023/10/02 15:26:05;;;;;;;;;;;22.70;94.80;;;;;;5098475;28;20011;-71
2023/10/02 15:28:32;;;;;;;;;;;22.70;94.80;;;;;;5091854;28;20432;-71
2023/10/02 15:30:57;;;;;;;;;;;22.70;94.80;;;;;;5091103;28;19931;-71